createdAt,value
2017-04-25T00:00:34.556Z,0
2017-04-25T00:01:56.087Z,0
2017-04-25T00:03:18.618Z,0
2017-04-25T00:04:40.172Z,0
2017-04-25T00:06:02.129Z,0
2017-04-25T00:07:24.352Z,0
2017-04-25T00:08:46.263Z,0
2017-04-25T00:10:08.506Z,0
2017-04-25T00:11:30.196Z,0
2017-04-25T00:12:52.120Z,0
2017-04-25T00:14:14.121Z,0
2017-04-25T00:15:36.291Z,0
2017-04-25T00:16:58.849Z,0
2017-04-25T00:18:20.750Z,0
2017-04-25T00:19:43.273Z,0
2017-04-25T00:21:05.789Z,0
2017-04-25T00:22:28.101Z,0
2017-04-25T00:23:50.612Z,0
2017-04-25T00:25:12.192Z,0
2017-04-25T00:26:33.728Z,0
2017-04-25T00:27:55.588Z,0
2017-04-25T00:29:17.456Z,0
2017-04-25T00:30:39.669Z,0
2017-04-25T00:32:01.537Z,0
2017-04-25T00:33:23.401Z,0
2017-04-25T00:34:45.259Z,0
2017-04-25T00:36:07.393Z,0
2017-04-25T00:37:28.618Z,0
2017-04-25T00:38:50.169Z,0
2017-04-25T00:40:12.069Z,0
2017-04-25T00:41:33.359Z,0
2017-04-25T00:42:55.860Z,0
2017-04-25T00:44:17.737Z,0
2017-04-25T00:45:39.584Z,0
2017-04-25T00:47:02.074Z,0
2017-04-25T00:48:23.629Z,0
2017-04-25T00:49:45.729Z,0
2017-04-25T00:51:07.578Z,0
2017-04-25T00:52:29.798Z,0
2017-04-25T00:53:51.338Z,0
2017-04-25T00:55:13.639Z,0
2017-04-25T00:56:35.836Z,0
2017-04-25T00:57:57.768Z,0
2017-04-25T00:59:20.029Z,0
2017-04-25T01:00:41.566Z,0
2017-04-25T01:02:02.788Z,0
2017-04-25T01:03:24.578Z,0
2017-04-25T01:04:46.199Z,0
2017-04-25T01:06:08.408Z,0
2017-04-25T01:07:29.960Z,0
2017-04-25T01:08:52.484Z,0
2017-04-25T01:10:14.040Z,0
2017-04-25T01:11:35.911Z,0
2017-04-25T01:12:58.429Z,0
2017-04-25T01:14:20.629Z,0
2017-04-25T01:15:42.829Z,0
2017-04-25T01:17:04.707Z,0
2017-04-25T01:18:26.561Z,0
2017-04-25T01:19:49.319Z,0
2017-04-25T01:21:10.539Z,0
2017-04-25T01:22:32.843Z,0
2017-04-25T01:23:54.071Z,0
2017-04-25T01:25:16.282Z,0
2017-04-25T01:26:38.149Z,0
2017-04-25T01:28:00.331Z,0
2017-04-25T01:29:22.833Z,0
2017-04-25T01:30:45.051Z,0
2017-04-25T01:32:06.919Z,0
2017-04-25T01:33:28.856Z,0
2017-04-25T01:34:51.368Z,0
2017-04-25T01:36:13.570Z,0
2017-04-25T01:37:35.128Z,0
2017-04-25T01:38:57.051Z,0
2017-04-25T01:40:18.589Z,0
2017-04-25T01:41:41.152Z,0
2017-04-25T01:43:03.437Z,0
2017-04-25T01:44:25.606Z,0
2017-04-25T01:45:47.926Z,0
2017-04-25T01:47:10.380Z,0
2017-04-25T01:48:32.250Z,0
2017-04-25T01:49:53.829Z,0
2017-04-25T01:51:15.819Z,0
2017-04-25T01:52:37.808Z,0
2017-04-25T01:53:59.703Z,0
2017-04-25T01:55:21.247Z,0
2017-04-25T01:56:43.098Z,0
2017-04-25T01:58:05.199Z,0
2017-04-25T01:59:27.383Z,0
2017-04-25T02:00:48.978Z,0
2017-04-25T02:02:10.549Z,0
2017-04-25T02:03:33.409Z,0
2017-04-25T02:04:54.957Z,0
2017-04-25T02:06:16.529Z,0
2017-04-25T02:07:38.718Z,0
2017-04-25T02:09:00.898Z,0
2017-04-25T02:10:22.477Z,0
2017-04-25T02:11:44.425Z,0
2017-04-25T02:13:05.761Z,0
2017-04-25T02:14:28.668Z,0
2017-04-25T02:15:50.848Z,0
2017-04-25T02:17:12.497Z,0
2017-04-25T02:18:34.379Z,0
2017-04-25T02:19:56.618Z,0
2017-04-25T02:21:18.569Z,0
2017-04-25T02:22:40.770Z,0
2017-04-25T02:24:01.979Z,0
2017-04-25T02:25:23.818Z,0
2017-04-25T02:26:45.690Z,0
2017-04-25T02:28:08.185Z,0
2017-04-25T02:29:30.058Z,0
2017-04-25T02:30:52.828Z,0
2017-04-25T02:32:15.361Z,0
2017-04-25T02:33:37.588Z,0
2017-04-25T02:34:59.841Z,0
2017-04-25T02:36:22.283Z,0
2017-04-25T02:37:44.200Z,0
2017-04-25T02:39:05.746Z,0
2017-04-25T02:40:27.433Z,0
2017-04-25T02:41:49.339Z,0
2017-04-25T02:43:11.587Z,0
2017-04-25T02:44:33.460Z,0
2017-04-25T02:45:55.658Z,0
2017-04-25T02:47:18.419Z,0
2017-04-25T02:48:40.298Z,0
2017-04-25T02:50:02.479Z,0
2017-04-25T02:51:24.677Z,0
2017-04-25T02:52:46.789Z,0
2017-04-25T02:54:08.709Z,0
2017-04-25T02:55:31.230Z,0
2017-04-25T02:56:52.768Z,0
2017-04-25T02:58:15.268Z,0
2017-04-25T02:59:37.447Z,0
2017-04-25T03:00:59.009Z,0
2017-04-25T03:02:21.511Z,0
2017-04-25T03:03:43.648Z,0
2017-04-25T03:05:05.519Z,0
2017-04-25T03:06:26.748Z,0
2017-04-25T03:07:48.696Z,0
2017-04-25T03:09:10.798Z,0
2017-04-25T03:10:32.687Z,0
2017-04-25T03:11:54.569Z,0
2017-04-25T03:13:16.556Z,0
2017-04-25T03:14:39.368Z,0
2017-04-25T03:16:00.591Z,0
2017-04-25T03:17:22.169Z,0
2017-04-25T03:18:43.728Z,0
2017-04-25T03:20:05.527Z,0
2017-04-25T03:21:26.760Z,0
2017-04-25T03:22:48.948Z,0
2017-04-25T03:24:11.138Z,0
2017-04-25T03:25:33.017Z,0
2017-04-25T03:26:54.588Z,0
2017-04-25T03:28:16.449Z,0
2017-04-25T03:29:38.758Z,0
2017-04-25T03:31:01.622Z,0
2017-04-25T03:32:23.179Z,4
2017-04-25T03:33:44.827Z,4
2017-04-25T03:35:06.780Z,4
2017-04-25T03:36:29.468Z,4
2017-04-25T03:37:51.683Z,8
2017-04-25T03:39:13.547Z,8
2017-04-25T03:40:35.108Z,4
2017-04-25T03:41:57.057Z,8
2017-04-25T03:43:18.296Z,8
2017-04-25T03:44:39.587Z,8
2017-04-25T03:46:01.837Z,12
2017-04-25T03:47:24.045Z,16
2017-04-25T03:48:45.910Z,20
2017-04-25T03:50:07.150Z,28
2017-04-25T03:51:29.326Z,48
2017-04-25T03:52:51.541Z,64
2017-04-25T03:54:13.425Z,80
2017-04-25T03:55:35.618Z,96
2017-04-25T03:56:57.494Z,124
2017-04-25T03:58:20.073Z,140
2017-04-25T03:59:41.668Z,144
2017-04-25T04:01:03.545Z,140
2017-04-25T04:02:26.078Z,112
2017-04-25T04:03:48.275Z,100
2017-04-25T04:05:10.258Z,112
2017-04-25T04:06:31.481Z,112
2017-04-25T04:07:53.357Z,156
2017-04-25T04:09:15.815Z,176
2017-04-25T04:10:38.108Z,128
2017-04-25T04:11:59.970Z,156
2017-04-25T04:13:21.828Z,156
2017-04-25T04:14:43.999Z,164
2017-04-25T04:16:06.190Z,160
2017-04-25T04:17:28.102Z,120
2017-04-25T04:18:50.325Z,152
2017-04-25T04:20:12.557Z,252
2017-04-25T04:21:33.792Z,316
2017-04-25T04:22:55.971Z,368
2017-04-25T04:24:18.474Z,444
2017-04-25T04:25:40.948Z,388
2017-04-25T04:27:02.909Z,388
2017-04-25T04:28:24.785Z,328
2017-04-25T04:29:46.378Z,300
2017-04-25T04:31:08.889Z,288
2017-04-25T04:32:30.438Z,392
2017-04-25T04:33:51.984Z,468
2017-04-25T04:35:13.521Z,516
2017-04-25T04:36:36.105Z,668
2017-04-25T04:37:58.409Z,460
2017-04-25T04:39:20.935Z,572
2017-04-25T04:40:42.875Z,548
2017-04-25T04:42:05.046Z,532
2017-04-25T04:43:27.258Z,596
2017-04-25T04:44:48.838Z,676
2017-04-25T04:46:11.348Z,568
2017-04-25T04:47:32.877Z,636
2017-04-25T04:48:54.757Z,604
2017-04-25T04:50:16.308Z,708
2017-04-25T04:51:38.429Z,748
2017-04-25T04:53:00.975Z,748
2017-04-25T04:54:22.550Z,836
2017-04-25T04:55:44.767Z,868
2017-04-25T04:57:06.337Z,920
2017-04-25T04:58:28.790Z,1352
2017-04-25T04:59:50.780Z,1328
2017-04-25T05:01:12.957Z,1180
2017-04-25T05:02:35.156Z,1300
2017-04-25T05:03:57.061Z,1184
2017-04-25T05:05:19.410Z,1016
2017-04-25T05:06:41.010Z,1016
2017-04-25T05:08:03.204Z,792
2017-04-25T05:09:25.436Z,1364
2017-04-25T05:10:47.310Z,1016
2017-04-25T05:12:09.228Z,640
2017-04-25T05:13:31.424Z,580
2017-04-25T05:14:53.229Z,904
2017-04-25T05:16:15.428Z,1248
2017-04-25T05:17:37.302Z,1044
2017-04-25T05:18:59.499Z,984
2017-04-25T05:20:22.037Z,1520
2017-04-25T05:21:44.297Z,2160
2017-04-25T05:23:05.536Z,2560
2017-04-25T05:24:28.038Z,2528
2017-04-25T05:25:50.252Z,2624
2017-04-25T05:27:12.447Z,2204
2017-04-25T05:28:34.370Z,2008
2017-04-25T05:29:56.288Z,2404
2017-04-25T05:31:18.768Z,2188
2017-04-25T05:32:40.959Z,1628
2017-04-25T05:34:03.160Z,1548
2017-04-25T05:35:25.051Z,1824
2017-04-25T05:36:47.200Z,1292
2017-04-25T05:38:09.398Z,1832
2017-04-25T05:39:31.597Z,2804
2017-04-25T05:40:53.476Z,3972
2017-04-25T05:42:15.398Z,5140
2017-04-25T05:43:37.255Z,6032
2017-04-25T05:44:59.510Z,6080
2017-04-25T05:46:22.110Z,8916
2017-04-25T05:47:44.966Z,8868
2017-04-25T05:49:06.620Z,8624
2017-04-25T05:50:28.489Z,8168
2017-04-25T05:51:50.169Z,34720
2017-04-25T05:53:12.307Z,18624
2017-04-25T05:54:34.518Z,39616
2017-04-25T05:55:56.057Z,36160
2017-04-25T05:57:17.609Z,11420
2017-04-25T05:58:40.177Z,14676
2017-04-25T06:00:01.826Z,11148
2017-04-25T06:01:23.937Z,10840
2017-04-25T06:02:45.487Z,13468
2017-04-25T06:04:07.310Z,13756
2017-04-25T06:05:29.751Z,19360
2017-04-25T06:06:51.947Z,23808
2017-04-25T06:08:13.168Z,15968
2017-04-25T06:09:35.668Z,12012
2017-04-25T06:10:58.105Z,11268
2017-04-25T06:12:20.605Z,10328
2017-04-25T06:13:42.427Z,18624
2017-04-25T06:15:04.830Z,13404
2017-04-25T06:16:26.966Z,21888
2017-04-25T06:17:48.808Z,17376
2017-04-25T06:19:10.348Z,26496
2017-04-25T06:20:32.163Z,11800
2017-04-25T06:21:54.647Z,17568
2017-04-25T06:23:16.468Z,11288
2017-04-25T06:24:38.357Z,12224
2017-04-25T06:26:00.762Z,10648
2017-04-25T06:27:22.906Z,10956
2017-04-25T06:28:45.370Z,13600
2017-04-25T06:30:07.906Z,45984
2017-04-25T06:31:30.332Z,10216
2017-04-25T06:32:52.510Z,13616
2017-04-25T06:34:14.660Z,14172
2017-04-25T06:35:36.857Z,23616
2017-04-25T06:36:59.317Z,20064
2017-04-25T06:38:20.847Z,20512
2017-04-25T06:39:43.008Z,24544
2017-04-25T06:41:04.826Z,42304
2017-04-25T06:42:27.654Z,14684
2017-04-25T06:43:49.178Z,11684
2017-04-25T06:45:11.015Z,17152
2017-04-25T06:46:32.948Z,13220
2017-04-25T06:47:55.338Z,13696
2017-04-25T06:49:17.481Z,59168
2017-04-25T06:50:39.643Z,16468
2017-04-25T06:52:01.797Z,61248
2017-04-25T06:53:23.686Z,65152
2017-04-25T06:54:44.887Z,60224
2017-04-25T06:56:06.409Z,59232
2017-04-25T06:57:28.569Z,60128
2017-04-25T06:58:51.138Z,58752
2017-04-25T07:00:12.716Z,66144
2017-04-25T07:01:34.561Z,62016
2017-04-25T07:02:57.030Z,13060
2017-04-25T07:04:19.534Z,30240
2017-04-25T07:05:41.688Z,30304
2017-04-25T07:07:03.554Z,11452
2017-04-25T07:08:25.387Z,28480
2017-04-25T07:09:48.210Z,16320
2017-04-25T07:11:10.386Z,10508
2017-04-25T07:12:32.053Z,26784
2017-04-25T07:13:53.970Z,25280
2017-04-25T07:15:16.501Z,22432
2017-04-25T07:16:38.005Z,23744
2017-04-25T07:17:59.196Z,21856
2017-04-25T07:19:21.387Z,20096
2017-04-25T07:20:43.867Z,21728
2017-04-25T07:22:05.430Z,20896
2017-04-25T07:23:27.259Z,18496
2017-04-25T07:24:49.748Z,12488
2017-04-25T07:26:11.207Z,25376
2017-04-25T07:27:32.747Z,18272
2017-04-25T07:28:54.317Z,17504
2017-04-25T07:30:16.587Z,18432
2017-04-25T07:31:38.039Z,10532
2017-04-25T07:32:59.933Z,11356
2017-04-25T07:34:22.396Z,12032
2017-04-25T07:35:44.310Z,24192
2017-04-25T07:37:06.822Z,25408
2017-04-25T07:38:29.297Z,17216
2017-04-25T07:39:51.789Z,16896
2017-04-25T07:41:14.262Z,13912
2017-04-25T07:42:36.407Z,18912
2017-04-25T07:43:58.258Z,15676
2017-04-25T07:45:20.247Z,11308
2017-04-25T07:46:41.789Z,20928
2017-04-25T07:48:04.235Z,16512
2017-04-25T07:49:26.399Z,22592
2017-04-25T07:50:48.243Z,22016
2017-04-25T07:52:10.517Z,19904
2017-04-25T07:53:32.763Z,18528
2017-04-25T07:54:54.668Z,15188
2017-04-25T07:56:16.798Z,12000
2017-04-25T07:57:38.969Z,13484
2017-04-25T07:59:01.120Z,16672
2017-04-25T08:00:23.598Z,16416
2017-04-25T08:01:45.870Z,13144
2017-04-25T08:03:08.049Z,9940
2017-04-25T08:04:30.574Z,12768
2017-04-25T08:05:52.415Z,15424
2017-04-25T08:07:14.582Z,19520
2017-04-25T08:08:36.730Z,16192
2017-04-25T08:09:59.268Z,16576
2017-04-25T08:11:21.408Z,14888
2017-04-25T08:12:42.289Z,16512
2017-04-25T08:14:04.448Z,16864
2017-04-25T08:15:26.601Z,15644
2017-04-25T08:16:47.808Z,16608
2017-04-25T08:18:09.330Z,16420
2017-04-25T08:19:31.835Z,18496
2017-04-25T08:20:54.298Z,21024
2017-04-25T08:22:16.755Z,21056
2017-04-25T08:23:39.059Z,18720
2017-04-25T08:25:01.252Z,13908
2017-04-25T08:26:23.336Z,11456
2017-04-25T08:27:45.172Z,12380
2017-04-25T08:29:07.019Z,14900
2017-04-25T08:30:29.303Z,13448
2017-04-25T08:31:51.580Z,9832
2017-04-25T08:33:13.799Z,9360
2017-04-25T08:34:35.939Z,12144
2017-04-25T08:35:58.097Z,12356
2017-04-25T08:37:20.277Z,12664
2017-04-25T08:38:42.429Z,13536
2017-04-25T08:40:04.377Z,12308
2017-04-25T08:41:26.609Z,12172
2017-04-25T08:42:49.031Z,13832
2017-04-25T08:44:11.203Z,16768
2017-04-25T08:45:33.407Z,20160
2017-04-25T08:46:55.670Z,18016
2017-04-25T08:48:18.157Z,15360
2017-04-25T08:49:40.340Z,14372
2017-04-25T08:51:02.170Z,13428
2017-04-25T08:52:23.373Z,13220
2017-04-25T08:53:44.717Z,10792
2017-04-25T08:55:06.865Z,9532
2017-04-25T08:56:28.728Z,8840
2017-04-25T08:57:50.261Z,8092
2017-04-25T08:59:12.686Z,8392
2017-04-25T09:00:34.938Z,9048
2017-04-25T09:01:57.071Z,10760
2017-04-25T09:03:19.241Z,12384
2017-04-25T09:04:41.987Z,13424
2017-04-25T09:06:04.468Z,15132
2017-04-25T09:07:26.649Z,17760
2017-04-25T09:08:48.800Z,20128
2017-04-25T09:10:10.561Z,14644
2017-04-25T09:11:32.225Z,11100
2017-04-25T09:12:53.747Z,12668
2017-04-25T09:14:15.922Z,13628
2017-04-25T09:15:38.157Z,11860
2017-04-25T09:17:00.029Z,12964
2017-04-25T09:18:21.638Z,13492
2017-04-25T09:19:43.514Z,11552
2017-04-25T09:21:05.588Z,8808
2017-04-25T09:22:28.048Z,9168
2017-04-25T09:23:50.505Z,11264
2017-04-25T09:25:13.068Z,11112
2017-04-25T09:26:35.191Z,12056
2017-04-25T09:27:57.066Z,13592
2017-04-25T09:29:18.262Z,18240
2017-04-25T09:30:39.787Z,16288
2017-04-25T09:32:01.879Z,15044
2017-04-25T09:33:24.339Z,9544
2017-04-25T09:34:46.167Z,6844
2017-04-25T09:36:08.370Z,6864
2017-04-25T09:37:30.467Z,8084
2017-04-25T09:38:52.002Z,9304
2017-04-25T09:40:14.198Z,11436
2017-04-25T09:41:35.707Z,12276
2017-04-25T09:42:57.816Z,13020
2017-04-25T09:44:20.011Z,16036
2017-04-25T09:45:41.841Z,21440
2017-04-25T09:47:03.676Z,19648
2017-04-25T09:48:25.818Z,13888
2017-04-25T09:49:47.971Z,10004
2017-04-25T09:51:10.120Z,8312
2017-04-25T09:52:31.950Z,7360
2017-04-25T09:53:53.891Z,3868
2017-04-25T09:55:15.798Z,3080
2017-04-25T09:56:37.635Z,4184
2017-04-25T09:57:59.458Z,6372
2017-04-25T09:59:21.227Z,7804
2017-04-25T10:00:43.504Z,7528
2017-04-25T10:02:05.377Z,7580
2017-04-25T10:03:26.572Z,7324
2017-04-25T10:04:49.329Z,8720
2017-04-25T10:06:11.162Z,11668
2017-04-25T10:07:33.328Z,12140
2017-04-25T10:08:55.185Z,11272
2017-04-25T10:10:17.865Z,9168
2017-04-25T10:11:40.377Z,7224
2017-04-25T10:13:02.835Z,6580
2017-04-25T10:14:24.678Z,5816
2017-04-25T10:15:47.270Z,5888
2017-04-25T10:17:09.096Z,5056
2017-04-25T10:18:31.250Z,3688
2017-04-25T10:19:53.457Z,4948
2017-04-25T10:21:15.275Z,6312
2017-04-25T10:22:36.784Z,8244
2017-04-25T10:23:58.908Z,9044
2017-04-25T10:25:21.072Z,9700
2017-04-25T10:26:43.269Z,11464
2017-04-25T10:28:04.810Z,12916
2017-04-25T10:29:26.640Z,13276
2017-04-25T10:30:48.777Z,13664
2017-04-25T10:32:11.067Z,13756
2017-04-25T10:33:33.219Z,12564
2017-04-25T10:34:55.713Z,12636
2017-04-25T10:36:17.852Z,14124
2017-04-25T10:37:40.352Z,20448
2017-04-25T10:39:01.984Z,19712
2017-04-25T10:40:24.438Z,21536
2017-04-25T10:41:46.923Z,25504
2017-04-25T10:43:09.109Z,22336
2017-04-25T10:44:31.001Z,19616
2017-04-25T10:45:53.207Z,19584
2017-04-25T10:47:15.099Z,18176
2017-04-25T10:48:37.559Z,15476
2017-04-25T10:49:59.428Z,11052
2017-04-25T10:51:21.339Z,8736
2017-04-25T10:52:43.482Z,8560
2017-04-25T10:54:06.206Z,9896
2017-04-25T10:55:28.037Z,11644
2017-04-25T10:56:50.487Z,12780
2017-04-25T10:58:11.696Z,15424
2017-04-25T10:59:33.841Z,17504
2017-04-25T11:00:55.048Z,18720
2017-04-25T11:02:17.630Z,18816
2017-04-25T11:03:40.119Z,18336
2017-04-25T11:05:02.778Z,18592
2017-04-25T11:06:24.645Z,19072
2017-04-25T11:07:46.489Z,18912
2017-04-25T11:09:07.994Z,17184
2017-04-25T11:10:30.488Z,13324
2017-04-25T11:11:52.323Z,10904
2017-04-25T11:13:14.478Z,10524
2017-04-25T11:14:36.973Z,11136
2017-04-25T11:15:59.841Z,12392
2017-04-25T11:17:22.295Z,12108
2017-04-25T11:18:44.206Z,14496
2017-04-25T11:20:05.725Z,15360
2017-04-25T11:21:27.792Z,15676
2017-04-25T11:22:49.969Z,20608
2017-04-25T11:24:12.128Z,20096
2017-04-25T11:25:33.672Z,21888
2017-04-25T11:26:56.085Z,17728
2017-04-25T11:28:17.948Z,15836
2017-04-25T11:29:39.774Z,16672
2017-04-25T11:31:01.948Z,17312
2017-04-25T11:32:24.387Z,15456
2017-04-25T11:33:46.659Z,14632
2017-04-25T11:35:08.207Z,13828
2017-04-25T11:36:30.038Z,15068
2017-04-25T11:37:51.867Z,16548
2017-04-25T11:39:13.725Z,16408
2017-04-25T11:40:35.545Z,14248
2017-04-25T11:41:57.390Z,12648
2017-04-25T11:43:19.276Z,12216
2017-04-25T11:44:41.785Z,12472
2017-04-25T11:46:04.261Z,12104
2017-04-25T11:47:26.461Z,11196
2017-04-25T11:48:48.865Z,11152
2017-04-25T11:50:11.338Z,11488
2017-04-25T11:51:33.508Z,12288
2017-04-25T11:52:55.027Z,13208
2017-04-25T11:54:17.290Z,16928
2017-04-25T11:55:39.627Z,21056
2017-04-25T11:57:01.800Z,20512
2017-04-25T11:58:23.334Z,19008
2017-04-25T11:59:45.828Z,12788
2017-04-25T12:01:07.347Z,8076
2017-04-25T12:02:29.485Z,7340
2017-04-25T12:03:51.739Z,7848
2017-04-25T12:05:13.893Z,7944
2017-04-25T12:06:36.084Z,6616
2017-04-25T12:07:58.329Z,6092
2017-04-25T12:09:20.173Z,5752
2017-04-25T12:10:42.659Z,6220
2017-04-25T12:12:04.853Z,6220
2017-04-25T12:13:27.150Z,6296
2017-04-25T12:14:49.483Z,6396
2017-04-25T12:16:11.902Z,6544
2017-04-25T12:17:33.406Z,7120
2017-04-25T12:18:54.951Z,8168
2017-04-25T12:20:16.798Z,8808
2017-04-25T12:21:39.737Z,8288
2017-04-25T12:23:01.048Z,8980
2017-04-25T12:24:22.871Z,9472
2017-04-25T12:25:44.725Z,11792
2017-04-25T12:27:06.549Z,12640
2017-04-25T12:28:28.708Z,12220
2017-04-25T12:29:50.594Z,12628
2017-04-25T12:31:13.066Z,13168
2017-04-25T12:32:35.141Z,13092
2017-04-25T12:33:57.372Z,13732
2017-04-25T12:35:19.669Z,14000
2017-04-25T12:36:41.838Z,14720
2017-04-25T12:38:04.030Z,15672
2017-04-25T12:39:26.203Z,16736
2017-04-25T12:40:48.350Z,13912
2017-04-25T12:42:10.501Z,13936
2017-04-25T12:43:32.278Z,15124
2017-04-25T12:44:54.469Z,15648
2017-04-25T12:46:16.922Z,20192
2017-04-25T12:47:38.761Z,20320
2017-04-25T12:49:01.549Z,17856
2017-04-25T12:50:23.738Z,14064
2017-04-25T12:51:45.249Z,11292
2017-04-25T12:53:07.712Z,10180
2017-04-25T12:54:30.582Z,8968
2017-04-25T12:55:52.496Z,7428
2017-04-25T12:57:14.351Z,6860
2017-04-25T12:58:36.207Z,7424
2017-04-25T12:59:58.349Z,8384
2017-04-25T13:01:20.186Z,9944
2017-04-25T13:02:42.417Z,10352
2017-04-25T13:04:04.594Z,8508
2017-04-25T13:05:27.155Z,7720
2017-04-25T13:06:49.418Z,7700
2017-04-25T13:08:11.269Z,8052
2017-04-25T13:09:33.184Z,8540
2017-04-25T13:10:54.988Z,9456
2017-04-25T13:12:16.521Z,10788
2017-04-25T13:13:38.678Z,12336
2017-04-25T13:15:00.545Z,13836
2017-04-25T13:16:22.640Z,14844
2017-04-25T13:17:44.173Z,15420
2017-04-25T13:19:06.664Z,15264
2017-04-25T13:20:28.841Z,14992
2017-04-25T13:21:50.949Z,14540
2017-04-25T13:23:12.825Z,14280
2017-04-25T13:24:35.079Z,13944
2017-04-25T13:25:57.389Z,13276
2017-04-25T13:27:19.884Z,12488
2017-04-25T13:28:42.102Z,12064
2017-04-25T13:30:04.418Z,11940
2017-04-25T13:31:26.956Z,12228
2017-04-25T13:32:49.811Z,12740
2017-04-25T13:34:11.665Z,13456
2017-04-25T13:35:33.506Z,14456
2017-04-25T13:36:55.698Z,15572
2017-04-25T13:38:17.924Z,16992
2017-04-25T13:39:40.419Z,17632
2017-04-25T13:41:02.889Z,17472
2017-04-25T13:42:24.130Z,12860
2017-04-25T13:43:45.920Z,10804
2017-04-25T13:45:08.069Z,12436
2017-04-25T13:46:29.930Z,16512
2017-04-25T13:47:51.789Z,18880
2017-04-25T13:49:14.753Z,17120
2017-04-25T13:50:36.949Z,13724
2017-04-25T13:51:58.836Z,10124
2017-04-25T13:53:21.293Z,7548
2017-04-25T13:54:43.788Z,6296
2017-04-25T13:56:05.702Z,5716
2017-04-25T13:57:27.856Z,5500
2017-04-25T13:58:50.029Z,5452
2017-04-25T14:00:12.657Z,5416
2017-04-25T14:01:34.830Z,5468
2017-04-25T14:02:56.717Z,5516
2017-04-25T14:04:18.557Z,5540
2017-04-25T14:05:41.118Z,5576
2017-04-25T14:07:03.339Z,5644
2017-04-25T14:08:25.558Z,5756
2017-04-25T14:09:47.495Z,6040
2017-04-25T14:11:10.109Z,6556
2017-04-25T14:12:32.247Z,7168
2017-04-25T14:13:53.756Z,7032
2017-04-25T14:15:15.974Z,6636
2017-04-25T14:16:37.423Z,7248
2017-04-25T14:17:59.648Z,8356
2017-04-25T14:19:21.797Z,10616
2017-04-25T14:20:43.950Z,10548
2017-04-25T14:22:06.456Z,9312
2017-04-25T14:23:28.596Z,10528
2017-04-25T14:24:50.225Z,11968
2017-04-25T14:26:12.466Z,11236
2017-04-25T14:27:34.756Z,10108
2017-04-25T14:28:57.255Z,10040
2017-04-25T14:30:19.327Z,10164
2017-04-25T14:31:41.173Z,10940
2017-04-25T14:33:03.268Z,12016
2017-04-25T14:34:25.504Z,11716
2017-04-25T14:35:47.814Z,10628
2017-04-25T14:37:09.986Z,10972
2017-04-25T14:38:32.143Z,11596
2017-04-25T14:39:54.382Z,12212
2017-04-25T14:41:16.294Z,11856
2017-04-25T14:42:38.807Z,12136
2017-04-25T14:44:01.247Z,11712
2017-04-25T14:45:23.738Z,11112
2017-04-25T14:46:46.207Z,10532
2017-04-25T14:48:08.054Z,10404
2017-04-25T14:49:29.878Z,10048
2017-04-25T14:50:51.397Z,10236
2017-04-25T14:52:13.245Z,10608
2017-04-25T14:53:35.411Z,10324
2017-04-25T14:54:57.838Z,8572
2017-04-25T14:56:19.697Z,6044
2017-04-25T14:57:42.190Z,4808
2017-04-25T14:59:04.354Z,4440
2017-04-25T15:00:26.746Z,4312
2017-04-25T15:01:49.247Z,4620
2017-04-25T15:03:11.388Z,5460
2017-04-25T15:04:32.919Z,5868
2017-04-25T15:05:55.018Z,5472
2017-04-25T15:07:17.518Z,5340
2017-04-25T15:08:39.787Z,5336
2017-04-25T15:10:01.953Z,5656
2017-04-25T15:11:24.208Z,5984
2017-04-25T15:12:46.362Z,5832
2017-04-25T15:14:08.507Z,5428
2017-04-25T15:15:30.996Z,5892
2017-04-25T15:16:53.181Z,7544
2017-04-25T15:18:15.359Z,10092
2017-04-25T15:19:37.267Z,11740
2017-04-25T15:20:59.565Z,12824
2017-04-25T15:22:22.468Z,13368
2017-04-25T15:23:44.323Z,12312
2017-04-25T15:25:06.153Z,10332
2017-04-25T15:26:27.677Z,9068
2017-04-25T15:27:50.117Z,10476
2017-04-25T15:29:12.284Z,11088
2017-04-25T15:30:34.459Z,9716
2017-04-25T15:31:56.610Z,8732
2017-04-25T15:33:19.466Z,7528
2017-04-25T15:34:41.618Z,6544
2017-04-25T15:36:04.081Z,5692
2017-04-25T15:37:26.580Z,5004
2017-04-25T15:38:49.068Z,5664
2017-04-25T15:40:11.220Z,6780
2017-04-25T15:41:33.099Z,6516
2017-04-25T15:42:55.257Z,5640
2017-04-25T15:44:17.503Z,4960
2017-04-25T15:45:39.689Z,4888
2017-04-25T15:47:02.283Z,5856
2017-04-25T15:48:23.825Z,8568
2017-04-25T15:49:46.357Z,11196
2017-04-25T15:51:08.559Z,11956
2017-04-25T15:52:31.085Z,11640
2017-04-25T15:53:52.946Z,11136
2017-04-25T15:55:15.198Z,11848
2017-04-25T15:56:37.368Z,11872
2017-04-25T15:57:59.562Z,10336
2017-04-25T15:59:22.047Z,8112
2017-04-25T16:01:16.094Z,6720
2017-04-25T16:02:38.612Z,6108
2017-04-25T16:04:01.227Z,5580
2017-04-25T16:05:24.078Z,5492
2017-04-25T16:06:46.581Z,5376
2017-04-25T16:08:08.442Z,5256
2017-04-25T16:09:30.298Z,5168
2017-04-25T16:10:53.016Z,5464
2017-04-25T16:12:15.196Z,6184
2017-04-25T16:13:36.736Z,6576
2017-04-25T16:14:59.228Z,6288
2017-04-25T16:16:21.654Z,5512
2017-04-25T16:17:43.478Z,4888
2017-04-25T16:19:05.642Z,4316
2017-04-25T16:20:28.134Z,3988
2017-04-25T16:21:50.875Z,3932
2017-04-25T16:23:12.721Z,4076
2017-04-25T16:24:34.876Z,4200
2017-04-25T16:25:57.055Z,4684
2017-04-25T16:27:19.265Z,5676
2017-04-25T16:28:41.756Z,6024
2017-04-25T16:30:03.962Z,6124
2017-04-25T16:31:25.906Z,6416
2017-04-25T16:32:48.479Z,6356
2017-04-25T16:34:10.352Z,5708
2017-04-25T16:35:32.795Z,5156
2017-04-25T16:36:54.317Z,4804
2017-04-25T16:38:16.520Z,5064
2017-04-25T16:39:38.709Z,5068
2017-04-25T16:41:00.912Z,5088
2017-04-25T16:42:23.160Z,4820
2017-04-25T16:43:45.248Z,4596
2017-04-25T16:45:07.490Z,4360
2017-04-25T16:46:29.646Z,4212
2017-04-25T16:47:52.118Z,5768
2017-04-25T16:49:14.546Z,6396
2017-04-25T16:50:36.756Z,5636
2017-04-25T16:51:59.230Z,4944
2017-04-25T16:53:21.150Z,4340
2017-04-25T16:54:43.423Z,4288
2017-04-25T16:56:05.597Z,3796
2017-04-25T16:57:28.066Z,3476
2017-04-25T16:58:50.278Z,3240
2017-04-25T17:00:12.683Z,3236
2017-04-25T17:01:35.170Z,3476
2017-04-25T17:02:56.687Z,4044
2017-04-25T17:04:17.565Z,4252
2017-04-25T17:05:39.697Z,3412
2017-04-25T17:07:01.834Z,3224
2017-04-25T17:08:23.801Z,3212
2017-04-25T17:09:46.336Z,3108
2017-04-25T17:11:08.216Z,3376
2017-04-25T17:12:29.778Z,3996
2017-04-25T17:13:52.112Z,4448
2017-04-25T17:15:13.635Z,4236
2017-04-25T17:16:36.248Z,4216
2017-04-25T17:17:58.399Z,4280
2017-04-25T17:19:20.577Z,4048
2017-04-25T17:20:42.720Z,4100
2017-04-25T17:22:05.487Z,3868
2017-04-25T17:23:27.373Z,3352
2017-04-25T17:24:49.529Z,3112
2017-04-25T17:26:12.128Z,3088
2017-04-25T17:27:34.851Z,3060
2017-04-25T17:28:57.378Z,2976
2017-04-25T17:30:19.929Z,2884
2017-04-25T17:31:41.787Z,2636
2017-04-25T17:33:04.252Z,2340
2017-04-25T17:34:25.781Z,2068
2017-04-25T17:35:47.318Z,1864
2017-04-25T17:37:09.515Z,1780
2017-04-25T17:38:32.250Z,1816
2017-04-25T17:39:54.423Z,1952
2017-04-25T17:41:16.578Z,2248
2017-04-25T17:42:38.414Z,2744
2017-04-25T17:44:00.821Z,4116
2017-04-25T17:45:22.679Z,6700
2017-04-25T17:46:44.849Z,9348
2017-04-25T17:48:07.041Z,8828
2017-04-25T17:49:29.998Z,6700
2017-04-25T17:50:52.527Z,4972
2017-04-25T17:52:14.713Z,4000
2017-04-25T17:53:37.275Z,3272
2017-04-25T17:55:00.008Z,2760
2017-04-25T17:56:21.871Z,2452
2017-04-25T17:57:44.381Z,2256
2017-04-25T17:59:06.898Z,2124
2017-04-25T18:01:01.469Z,2004
2017-04-25T18:02:23.637Z,1920
2017-04-25T18:03:46.121Z,1848
2017-04-25T18:05:08.628Z,1776
2017-04-25T18:06:31.039Z,1708
2017-04-25T18:07:53.277Z,1640
2017-04-25T18:09:14.489Z,1576
2017-04-25T18:10:36.929Z,1512
2017-04-25T18:11:59.079Z,1444
2017-04-25T18:13:21.270Z,1364
2017-04-25T18:14:43.818Z,1280
2017-04-25T18:16:06.585Z,1196
2017-04-25T18:17:28.905Z,1120
2017-04-25T18:18:51.160Z,1068
2017-04-25T18:20:13.549Z,1004
2017-04-25T18:21:36.172Z,944
2017-04-25T18:22:58.361Z,888
2017-04-25T18:24:20.573Z,832